sensor_id;sensor_type;location;lat;lon;timestamp;temperature;humidity
11700;DHT22;5906;51.660;6.674;2022-12-24T00:01:04;10.80;99.90
11700;DHT22;5906;51.660;6.674;2022-12-24T00:03:32;10.80;99.90
11700;DHT22;5906;51.660;6.674;2022-12-24T00:06:15;10.80;99.90
11700;DHT22;5906;51.660;6.674;2022-12-24T00:08:46;10.80;99.90
11700;DHT22;5906;51.660;6.674;2022-12-24T00:11:13;10.80;99.90
11700;DHT22;5906;51.660;6.674;2022-12-24T00:13:40;10.80;99.90
11700;DHT22;5906;51.660;6.674;2022-12-24T00:16:07;10.80;99.90
11700;DHT22;5906;51.660;6.674;2022-12-24T00:18:34;10.80;99.90
11700;DHT22;5906;51.660;6.674;2022-12-24T00:21:11;10.80;99.90
11700;DHT22;5906;51.660;6.674;2022-12-24T00:23:39;10.80;99.90
11700;DHT22;5906;51.660;6.674;2022-12-24T00:26:06;10.80;99.90
11700;DHT22;5906;51.660;6.674;2022-12-24T00:28:33;10.80;99.90
11700;DHT22;5906;51.660;6.674;2022-12-24T00:31:10;10.80;99.90
11700;DHT22;5906;51.660;6.674;2022-12-24T00:33:37;10.80;99.90
11700;DHT22;5906;51.660;6.674;2022-12-24T00:36:05;10.90;99.90
11700;DHT22;5906;51.660;6.674;2022-12-24T00:38:32;10.90;99.90
11700;DHT22;5906;51.660;6.674;2022-12-24T00:41:03;10.90;99.90
11700;DHT22;5906;51.660;6.674;2022-12-24T00:43:31;10.90;99.90
11700;DHT22;5906;51.660;6.674;2022-12-24T00:45:58;10.90;99.90
11700;DHT22;5906;51.660;6.674;2022-12-24T00:48:25;10.90;99.90
11700;DHT22;5906;51.660;6.674;2022-12-24T00:50:52;10.90;99.90
11700;DHT22;5906;51.660;6.674;2022-12-24T00:53:19;10.90;99.90
11700;DHT22;5906;51.660;6.674;2022-12-24T00:55:46;10.90;99.90
11700;DHT22;5906;51.660;6.674;2022-12-24T00:58:13;10.90;99.90
11700;DHT22;5906;51.660;6.674;2022-12-24T01:00:41;10.90;99.90
11700;DHT22;5906;51.660;6.674;2022-12-24T01:03:08;10.80;99.90
11700;DHT22;5906;51.660;6.674;2022-12-24T01:05:35;10.90;99.90
11700;DHT22;5906;51.660;6.674;2022-12-24T01:08:02;10.80;99.90
11700;DHT22;5906;51.660;6.674;2022-12-24T01:10:29;10.80;99.90
11700;DHT22;5906;51.660;6.674;2022-12-24T01:12:59;10.80;99.90
11700;DHT22;5906;51.660;6.674;2022-12-24T01:15:26;10.70;99.90
11700;DHT22;5906;51.660;6.674;2022-12-24T01:17:53;10.70;99.90
11700;DHT22;5906;51.660;6.674;2022-12-24T01:20:20;10.70;99.90
11700;DHT22;5906;51.660;6.674;2022-12-24T01:22:47;10.70;99.90
11700;DHT22;5906;51.660;6.674;2022-12-24T01:25:15;10.60;99.90
11700;DHT22;5906;51.660;6.674;2022-12-24T01:27:42;10.60;99.90
11700;DHT22;5906;51.660;6.674;2022-12-24T01:30:12;10.60;99.90
11700;DHT22;5906;51.660;6.674;2022-12-24T01:32:40;10.60;99.90
11700;DHT22;5906;51.660;6.674;2022-12-24T01:35:08;10.60;99.90
11700;DHT22;5906;51.660;6.674;2022-12-24T01:37:36;10.60;99.90
11700;DHT22;5906;51.660;6.674;2022-12-24T01:40:07;10.60;99.90
11700;DHT22;5906;51.660;6.674;2022-12-24T01:42:53;10.70;99.90
11700;DHT22;5906;51.660;6.674;2022-12-24T01:45:43;10.60;99.90
11700;DHT22;5906;51.660;6.674;2022-12-24T01:53:58;10.50;99.90
11700;DHT22;5906;51.660;6.674;2022-12-24T01:56:28;10.40;99.90
11700;DHT22;5906;51.660;6.674;2022-12-24T01:59:01;10.40;99.90
11700;DHT22;5906;51.660;6.674;2022-12-24T02:01:30;10.40;99.90
11700;DHT22;5906;51.660;6.674;2022-12-24T02:03:57;10.40;99.90
11700;DHT22;5906;51.660;6.674;2022-12-24T02:06:25;10.40;99.90
11700;DHT22;5906;51.660;6.674;2022-12-24T02:08:53;10.30;99.90
11700;DHT22;5906;51.660;6.674;2022-12-24T02:11:21;10.30;99.90
11700;DHT22;5906;51.660;6.674;2022-12-24T02:13:58;10.30;99.90
11700;DHT22;5906;51.660;6.674;2022-12-24T02:16:51;10.30;99.90
11700;DHT22;5906;51.660;6.674;2022-12-24T02:19:45;10.20;99.90
11700;DHT22;5906;51.660;6.674;2022-12-24T02:27:59;10.30;99.90
11700;DHT22;5906;51.660;6.674;2022-12-24T02:31:01;10.30;99.90
11700;DHT22;5906;51.660;6.674;2022-12-24T02:33:43;10.20;99.90
11700;DHT22;5906;51.660;6.674;2022-12-24T02:36:20;10.30;99.90
11700;DHT22;5906;51.660;6.674;2022-12-24T02:39:02;10.30;99.90
11700;DHT22;5906;51.660;6.674;2022-12-24T02:41:48;10.40;99.90
11700;DHT22;5906;51.660;6.674;2022-12-24T02:47:10;10.30;99.90
11700;DHT22;5906;51.660;6.674;2022-12-24T02:49:37;10.30;99.90
11700;DHT22;5906;51.660;6.674;2022-12-24T02:52:04;10.20;99.90
11700;DHT22;5906;51.660;6.674;2022-12-24T02:54:32;10.10;99.90
11700;DHT22;5906;51.660;6.674;2022-12-24T02:57:15;10.10;99.90
11700;DHT22;5906;51.660;6.674;2022-12-24T03:00:09;10.00;99.90
11700;DHT22;5906;51.660;6.674;2022-12-24T03:05:44;9.90;99.90
11700;DHT22;5906;51.660;6.674;2022-12-24T03:10:53;9.90;99.90
11700;DHT22;5906;51.660;6.674;2022-12-24T03:13:22;9.90;99.90
11700;DHT22;5906;51.660;6.674;2022-12-24T03:15:50;9.80;99.90
11700;DHT22;5906;51.660;6.674;2022-12-24T03:18:23;9.70;99.90
11700;DHT22;5906;51.660;6.674;2022-12-24T03:21:10;9.80;99.90
11700;DHT22;5906;51.660;6.674;2022-12-24T03:23:39;9.70;99.90
11700;DHT22;5906;51.660;6.674;2022-12-24T03:26:08;9.60;99.90
11700;DHT22;5906;51.660;6.674;2022-12-24T03:28:38;9.60;99.90
11700;DHT22;5906;51.660;6.674;2022-12-24T03:31:06;9.60;99.90
11700;DHT22;5906;51.660;6.674;2022-12-24T03:33:34;9.60;99.90
11700;DHT22;5906;51.660;6.674;2022-12-24T03:36:02;9.60;99.90
11700;DHT22;5906;51.660;6.674;2022-12-24T03:38:29;9.60;99.90
11700;DHT22;5906;51.660;6.674;2022-12-24T03:40:56;9.60;99.90
11700;DHT22;5906;51.660;6.674;2022-12-24T03:43:23;9.60;99.90
11700;DHT22;5906;51.660;6.674;2022-12-24T03:45:50;9.70;99.90
11700;DHT22;5906;51.660;6.674;2022-12-24T03:48:17;9.80;99.90
11700;DHT22;5906;51.660;6.674;2022-12-24T03:50:44;9.80;99.90
11700;DHT22;5906;51.660;6.674;2022-12-24T03:53:11;9.90;99.90
11700;DHT22;5906;51.660;6.674;2022-12-24T03:55:39;9.80;99.90
11700;DHT22;5906;51.660;6.674;2022-12-24T03:58:06;9.90;99.90
11700;DHT22;5906;51.660;6.674;2022-12-24T04:00:33;9.90;99.90
11700;DHT22;5906;51.660;6.674;2022-12-24T04:03:00;9.90;99.90
11700;DHT22;5906;51.660;6.674;2022-12-24T04:05:30;10.00;99.90
11700;DHT22;5906;51.660;6.674;2022-12-24T04:07:57;9.90;99.90
11700;DHT22;5906;51.660;6.674;2022-12-24T04:10:24;9.90;99.90
11700;DHT22;5906;51.660;6.674;2022-12-24T04:12:51;9.90;99.90
11700;DHT22;5906;51.660;6.674;2022-12-24T04:15:18;9.90;99.90
11700;DHT22;5906;51.660;6.674;2022-12-24T04:17:45;9.90;99.90
11700;DHT22;5906;51.660;6.674;2022-12-24T04:20:12;9.80;99.90
11700;DHT22;5906;51.660;6.674;2022-12-24T04:22:39;9.80;99.90
11700;DHT22;5906;51.660;6.674;2022-12-24T04:25:08;9.70;99.90
11700;DHT22;5906;51.660;6.674;2022-12-24T04:27:35;9.70;99.90
11700;DHT22;5906;51.660;6.674;2022-12-24T04:30:02;9.70;99.90
11700;DHT22;5906;51.660;6.674;2022-12-24T04:32:29;9.60;99.90
11700;DHT22;5906;51.660;6.674;2022-12-24T04:34:56;9.60;99.90
11700;DHT22;5906;51.660;6.674;2022-12-24T04:37:23;9.60;99.90
11700;DHT22;5906;51.660;6.674;2022-12-24T04:39:50;9.80;99.90
11700;DHT22;5906;51.660;6.674;2022-12-24T04:42:17;9.70;99.90
11700;DHT22;5906;51.660;6.674;2022-12-24T04:44:44;9.70;99.90
11700;DHT22;5906;51.660;6.674;2022-12-24T04:47:11;9.80;99.90
11700;DHT22;5906;51.660;6.674;2022-12-24T04:49:38;9.90;99.90
11700;DHT22;5906;51.660;6.674;2022-12-24T04:52:05;9.90;99.90
11700;DHT22;5906;51.660;6.674;2022-12-24T04:54:32;9.90;99.90
11700;DHT22;5906;51.660;6.674;2022-12-24T04:56:59;9.90;99.90
11700;DHT22;5906;51.660;6.674;2022-12-24T04:59:26;9.90;99.90
11700;DHT22;5906;51.660;6.674;2022-12-24T05:01:53;9.90;99.90
11700;DHT22;5906;51.660;6.674;2022-12-24T05:04:20;9.90;99.90
11700;DHT22;5906;51.660;6.674;2022-12-24T05:06:47;10.00;99.90
11700;DHT22;5906;51.660;6.674;2022-12-24T05:09:14;10.10;99.90
11700;DHT22;5906;51.660;6.674;2022-12-24T05:11:41;10.10;99.90
11700;DHT22;5906;51.660;6.674;2022-12-24T05:14:08;10.20;99.90
11700;DHT22;5906;51.660;6.674;2022-12-24T05:16:35;10.20;99.90
11700;DHT22;5906;51.660;6.674;2022-12-24T05:19:04;10.20;99.90
11700;DHT22;5906;51.660;6.674;2022-12-24T05:21:31;10.20;99.90
11700;DHT22;5906;51.660;6.674;2022-12-24T05:23:59;10.30;99.90
11700;DHT22;5906;51.660;6.674;2022-12-24T05:26:52;10.40;99.90
11700;DHT22;5906;51.660;6.674;2022-12-24T05:29:20;10.40;99.90
11700;DHT22;5906;51.660;6.674;2022-12-24T05:31:48;10.40;99.90
11700;DHT22;5906;51.660;6.674;2022-12-24T05:34:16;10.50;99.90
11700;DHT22;5906;51.660;6.674;2022-12-24T05:36:43;10.50;99.90
11700;DHT22;5906;51.660;6.674;2022-12-24T05:39:15;10.50;99.90
11700;DHT22;5906;51.660;6.674;2022-12-24T05:41:43;10.50;99.90
11700;DHT22;5906;51.660;6.674;2022-12-24T05:44:10;10.50;99.90
11700;DHT22;5906;51.660;6.674;2022-12-24T05:46:37;10.50;99.90
11700;DHT22;5906;51.660;6.674;2022-12-24T05:49:04;10.50;99.90
11700;DHT22;5906;51.660;6.674;2022-12-24T05:51:31;10.50;99.90
11700;DHT22;5906;51.660;6.674;2022-12-24T05:53:58;10.50;99.90
11700;DHT22;5906;51.660;6.674;2022-12-24T05:56:26;10.50;99.90
11700;DHT22;5906;51.660;6.674;2022-12-24T05:58:53;10.50;99.90
11700;DHT22;5906;51.660;6.674;2022-12-24T06:01:21;10.50;99.90
11700;DHT22;5906;51.660;6.674;2022-12-24T06:03:49;10.50;99.90
11700;DHT22;5906;51.660;6.674;2022-12-24T06:06:19;10.60;99.90
11700;DHT22;5906;51.660;6.674;2022-12-24T06:08:47;10.60;99.90
11700;DHT22;5906;51.660;6.674;2022-12-24T06:11:16;10.70;99.90
11700;DHT22;5906;51.660;6.674;2022-12-24T06:13:44;10.60;99.90
11700;DHT22;5906;51.660;6.674;2022-12-24T06:16:15;10.60;99.90
11700;DHT22;5906;51.660;6.674;2022-12-24T06:18:44;10.60;99.90
11700;DHT22;5906;51.660;6.674;2022-12-24T06:21:11;10.60;99.90
11700;DHT22;5906;51.660;6.674;2022-12-24T06:23:40;10.60;99.90
11700;DHT22;5906;51.660;6.674;2022-12-24T06:26:08;10.60;99.90
11700;DHT22;5906;51.660;6.674;2022-12-24T06:28:36;10.70;99.90
11700;DHT22;5906;51.660;6.674;2022-12-24T06:31:05;10.70;99.90
11700;DHT22;5906;51.660;6.674;2022-12-24T06:33:33;10.60;99.90
11700;DHT22;5906;51.660;6.674;2022-12-24T06:36:00;10.70;99.90
11700;DHT22;5906;51.660;6.674;2022-12-24T06:38:31;10.70;99.90
11700;DHT22;5906;51.660;6.674;2022-12-24T06:40:58;10.70;99.90
11700;DHT22;5906;51.660;6.674;2022-12-24T06:43:25;10.70;99.90
11700;DHT22;5906;51.660;6.674;2022-12-24T06:45:52;10.70;99.90
11700;DHT22;5906;51.660;6.674;2022-12-24T06:48:19;10.70;99.90
11700;DHT22;5906;51.660;6.674;2022-12-24T06:50:46;10.70;99.90
11700;DHT22;5906;51.660;6.674;2022-12-24T06:53:13;10.70;99.90
11700;DHT22;5906;51.660;6.674;2022-12-24T06:55:40;10.70;99.90
11700;DHT22;5906;51.660;6.674;2022-12-24T06:58:07;10.80;99.90
11700;DHT22;5906;51.660;6.674;2022-12-24T07:00:34;10.80;99.90
11700;DHT22;5906;51.660;6.674;2022-12-24T07:03:01;10.80;99.90
11700;DHT22;5906;51.660;6.674;2022-12-24T07:05:28;10.80;99.90
11700;DHT22;5906;51.660;6.674;2022-12-24T07:07:56;10.80;99.90
11700;DHT22;5906;51.660;6.674;2022-12-24T07:10:23;10.80;99.90
11700;DHT22;5906;51.660;6.674;2022-12-24T07:12:50;10.80;99.90
11700;DHT22;5906;51.660;6.674;2022-12-24T07:15:17;10.80;99.90
11700;DHT22;5906;51.660;6.674;2022-12-24T07:17:44;10.80;99.90
11700;DHT22;5906;51.660;6.674;2022-12-24T07:20:13;10.80;99.90
11700;DHT22;5906;51.660;6.674;2022-12-24T07:22:41;10.80;99.90
11700;DHT22;5906;51.660;6.674;2022-12-24T07:25:09;10.80;99.90
11700;DHT22;5906;51.660;6.674;2022-12-24T07:27:37;10.80;99.90
11700;DHT22;5906;51.660;6.674;2022-12-24T07:30:06;10.80;99.90
11700;DHT22;5906;51.660;6.674;2022-12-24T07:32:33;10.80;99.90
11700;DHT22;5906;51.660;6.674;2022-12-24T07:35:00;10.80;99.90
11700;DHT22;5906;51.660;6.674;2022-12-24T07:37:27;10.80;99.90
11700;DHT22;5906;51.660;6.674;2022-12-24T07:39:54;10.80;99.90
11700;DHT22;5906;51.660;6.674;2022-12-24T07:42:21;10.80;99.90
11700;DHT22;5906;51.660;6.674;2022-12-24T07:44:47;10.80;99.90
11700;DHT22;5906;51.660;6.674;2022-12-24T07:47:14;10.80;99.90
11700;DHT22;5906;51.660;6.674;2022-12-24T07:49:42;10.80;99.90
11700;DHT22;5906;51.660;6.674;2022-12-24T07:52:09;10.70;99.90
11700;DHT22;5906;51.660;6.674;2022-12-24T07:54:36;10.70;99.90
11700;DHT22;5906;51.660;6.674;2022-12-24T07:57:03;10.70;99.90
11700;DHT22;5906;51.660;6.674;2022-12-24T07:59:30;10.70;99.90
11700;DHT22;5906;51.660;6.674;2022-12-24T08:01:57;10.70;99.90
11700;DHT22;5906;51.660;6.674;2022-12-24T08:04:24;10.70;99.90
11700;DHT22;5906;51.660;6.674;2022-12-24T08:06:51;10.70;99.90
11700;DHT22;5906;51.660;6.674;2022-12-24T08:09:18;10.70;99.90
11700;DHT22;5906;51.660;6.674;2022-12-24T08:11:45;10.70;99.90
11700;DHT22;5906;51.660;6.674;2022-12-24T08:14:18;10.80;99.90
11700;DHT22;5906;51.660;6.674;2022-12-24T08:16:45;10.80;99.90
11700;DHT22;5906;51.660;6.674;2022-12-24T08:19:12;10.70;99.90
11700;DHT22;5906;51.660;6.674;2022-12-24T08:21:39;10.80;99.90
11700;DHT22;5906;51.660;6.674;2022-12-24T08:24:06;10.80;99.90
11700;DHT22;5906;51.660;6.674;2022-12-24T08:26:34;10.90;99.90
11700;DHT22;5906;51.660;6.674;2022-12-24T08:29:02;10.80;99.90
11700;DHT22;5906;51.660;6.674;2022-12-24T08:31:32;10.80;99.90
11700;DHT22;5906;51.660;6.674;2022-12-24T08:34:03;10.80;99.90
11700;DHT22;5906;51.660;6.674;2022-12-24T08:36:30;10.80;99.90
11700;DHT22;5906;51.660;6.674;2022-12-24T08:38:58;10.80;99.90
11700;DHT22;5906;51.660;6.674;2022-12-24T08:41:25;10.80;99.90
11700;DHT22;5906;51.660;6.674;2022-12-24T08:43:52;10.80;99.90
11700;DHT22;5906;51.660;6.674;2022-12-24T08:46:19;10.80;99.90
11700;DHT22;5906;51.660;6.674;2022-12-24T08:48:46;10.80;99.90
11700;DHT22;5906;51.660;6.674;2022-12-24T08:51:13;10.80;99.90
11700;DHT22;5906;51.660;6.674;2022-12-24T08:53:40;10.80;99.90
11700;DHT22;5906;51.660;6.674;2022-12-24T08:56:09;10.80;99.90
11700;DHT22;5906;51.660;6.674;2022-12-24T08:58:37;10.80;99.90
11700;DHT22;5906;51.660;6.674;2022-12-24T09:01:12;10.90;99.90
11700;DHT22;5906;51.660;6.674;2022-12-24T09:03:40;10.90;99.90
11700;DHT22;5906;51.660;6.674;2022-12-24T09:06:07;10.90;99.90
11700;DHT22;5906;51.660;6.674;2022-12-24T09:08:36;10.90;99.90
11700;DHT22;5906;51.660;6.674;2022-12-24T09:11:14;10.90;99.90
11700;DHT22;5906;51.660;6.674;2022-12-24T09:13:42;10.90;99.90
11700;DHT22;5906;51.660;6.674;2022-12-24T09:16:10;11.00;99.90
11700;DHT22;5906;51.660;6.674;2022-12-24T09:18:38;11.00;99.90
11700;DHT22;5906;51.660;6.674;2022-12-24T09:21:11;11.10;99.90
11700;DHT22;5906;51.660;6.674;2022-12-24T09:23:41;11.10;99.90
11700;DHT22;5906;51.660;6.674;2022-12-24T09:26:18;11.20;99.90
11700;DHT22;5906;51.660;6.674;2022-12-24T09:28:46;11.20;99.90
11700;DHT22;5906;51.660;6.674;2022-12-24T09:31:13;11.20;99.90
11700;DHT22;5906;51.660;6.674;2022-12-24T09:33:43;11.20;99.90
11700;DHT22;5906;51.660;6.674;2022-12-24T09:36:10;11.30;99.90
11700;DHT22;5906;51.660;6.674;2022-12-24T09:38:37;11.40;99.90
11700;DHT22;5906;51.660;6.674;2022-12-24T09:47:07;11.30;99.90
11700;DHT22;5906;51.660;6.674;2022-12-24T09:49:41;11.30;99.90
11700;DHT22;5906;51.660;6.674;2022-12-24T09:52:16;11.30;99.90
11700;DHT22;5906;51.660;6.674;2022-12-24T09:55:28;11.30;99.90
11700;DHT22;5906;51.660;6.674;2022-12-24T09:57:59;11.30;99.90
11700;DHT22;5906;51.660;6.674;2022-12-24T10:00:36;11.40;99.90
11700;DHT22;5906;51.660;6.674;2022-12-24T10:03:16;11.30;99.90
11700;DHT22;5906;51.660;6.674;2022-12-24T10:05:50;11.40;99.90
11700;DHT22;5906;51.660;6.674;2022-12-24T10:10:52;11.40;99.90
11700;DHT22;5906;51.660;6.674;2022-12-24T10:13:47;11.50;99.90
11700;DHT22;5906;51.660;6.674;2022-12-24T10:16:25;11.50;99.90
11700;DHT22;5906;51.660;6.674;2022-12-24T10:19:15;11.60;99.90
11700;DHT22;5906;51.660;6.674;2022-12-24T10:24:21;11.70;99.90
11700;DHT22;5906;51.660;6.674;2022-12-24T10:27:10;11.80;99.90
11700;DHT22;5906;51.660;6.674;2022-12-24T10:29:42;11.80;99.90
11700;DHT22;5906;51.660;6.674;2022-12-24T10:32:25;11.90;99.90
11700;DHT22;5906;51.660;6.674;2022-12-24T10:35:05;11.90;99.90
11700;DHT22;5906;51.660;6.674;2022-12-24T10:37:34;11.90;99.90
11700;DHT22;5906;51.660;6.674;2022-12-24T10:40:02;11.90;99.90
11700;DHT22;5906;51.660;6.674;2022-12-24T10:42:40;11.80;99.90
11700;DHT22;5906;51.660;6.674;2022-12-24T10:45:20;11.80;99.90
11700;DHT22;5906;51.660;6.674;2022-12-24T10:47:50;11.90;99.90
11700;DHT22;5906;51.660;6.674;2022-12-24T10:52:52;11.90;99.90
11700;DHT22;5906;51.660;6.674;2022-12-24T10:55:22;11.80;99.90
11700;DHT22;5906;51.660;6.674;2022-12-24T10:58:04;11.90;99.90
11700;DHT22;5906;51.660;6.674;2022-12-24T11:00:41;11.80;99.90
11700;DHT22;5906;51.660;6.674;2022-12-24T11:05:38;11.90;99.90
11700;DHT22;5906;51.660;6.674;2022-12-24T11:08:15;12.00;99.90
11700;DHT22;5906;51.660;6.674;2022-12-24T11:13:43;12.00;99.90
11700;DHT22;5906;51.660;6.674;2022-12-24T11:18:52;12.10;99.90
11700;DHT22;5906;51.660;6.674;2022-12-24T11:26:40;12.10;99.90
11700;DHT22;5906;51.660;6.674;2022-12-24T11:31:42;12.20;99.90
11700;DHT22;5906;51.660;6.674;2022-12-24T11:36:49;12.30;99.90
11700;DHT22;5906;51.660;6.674;2022-12-24T11:39:22;12.30;99.90
11700;DHT22;5906;51.660;6.674;2022-12-24T11:41:50;12.30;99.90
11700;DHT22;5906;51.660;6.674;2022-12-24T11:44:26;12.40;99.90
11700;DHT22;5906;51.660;6.674;2022-12-24T11:46:55;12.40;99.90
11700;DHT22;5906;51.660;6.674;2022-12-24T11:49:28;12.40;99.90
11700;DHT22;5906;51.660;6.674;2022-12-24T11:55:18;12.40;99.90
11700;DHT22;5906;51.660;6.674;2022-12-24T11:57:55;12.40;99.90
11700;DHT22;5906;51.660;6.674;2022-12-24T12:00:24;12.40;99.90
11700;DHT22;5906;51.660;6.674;2022-12-24T12:02:55;12.40;99.90
11700;DHT22;5906;51.660;6.674;2022-12-24T12:05:26;12.50;99.90
11700;DHT22;5906;51.660;6.674;2022-12-24T12:08:16;12.50;99.90
11700;DHT22;5906;51.660;6.674;2022-12-24T12:10:45;12.50;99.90
11700;DHT22;5906;51.660;6.674;2022-12-24T12:13:18;12.40;99.90
11700;DHT22;5906;51.660;6.674;2022-12-24T12:15:50;12.30;99.90
11700;DHT22;5906;51.660;6.674;2022-12-24T12:18:21;12.30;99.90
11700;DHT22;5906;51.660;6.674;2022-12-24T12:20:54;12.30;99.90
11700;DHT22;5906;51.660;6.674;2022-12-24T12:23:29;12.20;99.90
11700;DHT22;5906;51.660;6.674;2022-12-24T12:28:48;12.00;99.90
11700;DHT22;5906;51.660;6.674;2022-12-24T12:31:55;11.90;99.90
11700;DHT22;5906;51.660;6.674;2022-12-24T12:34:22;11.90;99.90
11700;DHT22;5906;51.660;6.674;2022-12-24T12:36:55;11.90;99.90
11700;DHT22;5906;51.660;6.674;2022-12-24T12:39:24;11.80;99.90
11700;DHT22;5906;51.660;6.674;2022-12-24T12:50:24;11.90;99.90
11700;DHT22;5906;51.660;6.674;2022-12-24T12:58:33;11.80;99.90
11700;DHT22;5906;51.660;6.674;2022-12-24T13:01:23;12.00;99.90
11700;DHT22;5906;51.660;6.674;2022-12-24T13:18:24;12.10;99.90
11700;DHT22;5906;51.660;6.674;2022-12-24T13:20:59;12.00;99.90
11700;DHT22;5906;51.660;6.674;2022-12-24T13:23:26;12.00;99.90
11700;DHT22;5906;51.660;6.674;2022-12-24T13:25:57;11.90;99.90
11700;DHT22;5906;51.660;6.674;2022-12-24T13:30:53;11.90;99.90
11700;DHT22;5906;51.660;6.674;2022-12-24T13:36:10;11.80;99.90
11700;DHT22;5906;51.660;6.674;2022-12-24T13:44:23;11.70;99.90
11700;DHT22;5906;51.660;6.674;2022-12-24T13:46:57;11.60;99.90
11700;DHT22;5906;51.660;6.674;2022-12-24T13:49:41;11.60;99.90
11700;DHT22;5906;51.660;6.674;2022-12-24T13:52:16;11.60;99.90
11700;DHT22;5906;51.660;6.674;2022-12-24T13:57:42;11.50;99.90
11700;DHT22;5906;51.660;6.674;2022-12-24T14:05:47;11.50;99.90
11700;DHT22;5906;51.660;6.674;2022-12-24T14:11:04;11.50;99.90
11700;DHT22;5906;51.660;6.674;2022-12-24T14:19:02;11.50;99.90
11700;DHT22;5906;51.660;6.674;2022-12-24T14:24:42;11.50;99.90
11700;DHT22;5906;51.660;6.674;2022-12-24T14:32:42;11.30;99.90
11700;DHT22;5906;51.660;6.674;2022-12-24T14:37:40;11.10;99.90
11700;DHT22;5906;51.660;6.674;2022-12-24T14:40:14;11.10;99.90
11700;DHT22;5906;51.660;6.674;2022-12-24T14:45:34;11.00;99.90
11700;DHT22;5906;51.660;6.674;2022-12-24T14:51:24;10.90;99.90
11700;DHT22;5906;51.660;6.674;2022-12-24T14:56:45;10.80;99.90
11700;DHT22;5906;51.660;6.674;2022-12-24T14:59:19;10.70;99.90
11700;DHT22;5906;51.660;6.674;2022-12-24T15:01:46;10.60;99.90
11700;DHT22;5906;51.660;6.674;2022-12-24T15:04:16;10.60;99.90
11700;DHT22;5906;51.660;6.674;2022-12-24T15:06:49;10.60;99.90
11700;DHT22;5906;51.660;6.674;2022-12-24T15:09:21;10.40;99.90
11700;DHT22;5906;51.660;6.674;2022-12-24T15:11:51;10.30;99.90
11700;DHT22;5906;51.660;6.674;2022-12-24T15:14:20;10.30;99.90
11700;DHT22;5906;51.660;6.674;2022-12-24T15:17:11;10.30;99.90
11700;DHT22;5906;51.660;6.674;2022-12-24T15:19:41;10.10;99.90
11700;DHT22;5906;51.660;6.674;2022-12-24T15:22:28;10.10;99.90
11700;DHT22;5906;51.660;6.674;2022-12-24T15:24:56;10.00;99.90
11700;DHT22;5906;51.660;6.674;2022-12-24T15:27:25;9.90;99.90
11700;DHT22;5906;51.660;6.674;2022-12-24T15:29:56;9.90;99.90
11700;DHT22;5906;51.660;6.674;2022-12-24T15:32:23;9.70;99.90
11700;DHT22;5906;51.660;6.674;2022-12-24T15:34:52;9.70;99.90
11700;DHT22;5906;51.660;6.674;2022-12-24T15:37:25;9.60;99.90
11700;DHT22;5906;51.660;6.674;2022-12-24T15:39:58;9.50;99.90
11700;DHT22;5906;51.660;6.674;2022-12-24T15:42:27;9.40;99.90
11700;DHT22;5906;51.660;6.674;2022-12-24T15:45:13;9.30;99.90
11700;DHT22;5906;51.660;6.674;2022-12-24T15:47:51;9.20;99.90
11700;DHT22;5906;51.660;6.674;2022-12-24T15:50:30;9.20;99.90
11700;DHT22;5906;51.660;6.674;2022-12-24T15:53:12;9.10;99.90
11700;DHT22;5906;51.660;6.674;2022-12-24T15:58:28;8.90;99.90
11700;DHT22;5906;51.660;6.674;2022-12-24T16:01:24;8.90;99.90
11700;DHT22;5906;51.660;6.674;2022-12-24T16:06:22;8.80;99.90
11700;DHT22;5906;51.660;6.674;2022-12-24T16:08:49;8.70;99.90
11700;DHT22;5906;51.660;6.674;2022-12-24T16:16:19;8.50;99.90
11700;DHT22;5906;51.660;6.674;2022-12-24T16:18:55;8.40;99.90
11700;DHT22;5906;51.660;6.674;2022-12-24T16:21:30;8.30;99.90
11700;DHT22;5906;51.660;6.674;2022-12-24T16:24:18;8.20;99.90
11700;DHT22;5906;51.660;6.674;2022-12-24T16:26:46;8.20;99.90
11700;DHT22;5906;51.660;6.674;2022-12-24T16:29:14;8.10;99.90
11700;DHT22;5906;51.660;6.674;2022-12-24T16:31:58;8.10;99.90
11700;DHT22;5906;51.660;6.674;2022-12-24T16:34:29;8.10;99.90
11700;DHT22;5906;51.660;6.674;2022-12-24T16:36:57;8.00;99.90
11700;DHT22;5906;51.660;6.674;2022-12-24T16:39:29;8.00;99.90
11700;DHT22;5906;51.660;6.674;2022-12-24T16:41:59;7.90;99.90
11700;DHT22;5906;51.660;6.674;2022-12-24T16:44:45;7.90;99.90
11700;DHT22;5906;51.660;6.674;2022-12-24T16:47:23;7.90;99.90
11700;DHT22;5906;51.660;6.674;2022-12-24T16:49:50;7.80;99.90
11700;DHT22;5906;51.660;6.674;2022-12-24T16:52:24;7.90;99.90
11700;DHT22;5906;51.660;6.674;2022-12-24T16:54:55;7.80;99.90
11700;DHT22;5906;51.660;6.674;2022-12-24T16:57:23;7.90;99.90
11700;DHT22;5906;51.660;6.674;2022-12-24T16:59:50;7.90;99.90
11700;DHT22;5906;51.660;6.674;2022-12-24T17:02:19;7.90;99.90
11700;DHT22;5906;51.660;6.674;2022-12-24T17:04:47;7.80;99.90
11700;DHT22;5906;51.660;6.674;2022-12-24T17:07:16;7.80;99.90
11700;DHT22;5906;51.660;6.674;2022-12-24T17:09:43;7.70;99.90
11700;DHT22;5906;51.660;6.674;2022-12-24T17:12:10;7.70;99.90
11700;DHT22;5906;51.660;6.674;2022-12-24T17:14:38;7.70;99.90
11700;DHT22;5906;51.660;6.674;2022-12-24T17:17:05;7.70;99.90
11700;DHT22;5906;51.660;6.674;2022-12-24T17:19:31;7.70;99.90
11700;DHT22;5906;51.660;6.674;2022-12-24T17:21:58;7.70;99.90
11700;DHT22;5906;51.660;6.674;2022-12-24T17:24:25;7.60;99.90
11700;DHT22;5906;51.660;6.674;2022-12-24T17:26:51;7.60;99.90
11700;DHT22;5906;51.660;6.674;2022-12-24T17:29:18;7.60;99.90
11700;DHT22;5906;51.660;6.674;2022-12-24T17:31:45;7.60;99.90
11700;DHT22;5906;51.660;6.674;2022-12-24T17:34:12;7.60;99.90
11700;DHT22;5906;51.660;6.674;2022-12-24T17:36:38;7.60;99.90
11700;DHT22;5906;51.660;6.674;2022-12-24T17:39:05;7.60;99.90
11700;DHT22;5906;51.660;6.674;2022-12-24T17:41:33;7.50;99.90
11700;DHT22;5906;51.660;6.674;2022-12-24T17:44:00;7.50;99.90
11700;DHT22;5906;51.660;6.674;2022-12-24T17:46:26;7.40;99.90
11700;DHT22;5906;51.660;6.674;2022-12-24T17:48:54;7.40;99.90
11700;DHT22;5906;51.660;6.674;2022-12-24T17:51:22;7.30;99.90
11700;DHT22;5906;51.660;6.674;2022-12-24T17:53:49;7.30;99.90
11700;DHT22;5906;51.660;6.674;2022-12-24T17:56:16;7.20;99.90
11700;DHT22;5906;51.660;6.674;2022-12-24T17:58:44;7.30;99.90
11700;DHT22;5906;51.660;6.674;2022-12-24T18:01:19;7.20;99.90
11700;DHT22;5906;51.660;6.674;2022-12-24T18:03:48;7.10;99.90
11700;DHT22;5906;51.660;6.674;2022-12-24T18:06:16;7.00;99.90
11700;DHT22;5906;51.660;6.674;2022-12-24T18:08:43;7.00;99.90
11700;DHT22;5906;51.660;6.674;2022-12-24T18:11:24;6.90;99.90
11700;DHT22;5906;51.660;6.674;2022-12-24T18:13:53;6.90;99.90
11700;DHT22;5906;51.660;6.674;2022-12-24T18:16:23;6.80;99.90
11700;DHT22;5906;51.660;6.674;2022-12-24T18:18:51;6.80;99.90
11700;DHT22;5906;51.660;6.674;2022-12-24T18:21:20;6.70;99.90
11700;DHT22;5906;51.660;6.674;2022-12-24T18:23:49;6.70;99.90
11700;DHT22;5906;51.660;6.674;2022-12-24T18:26:18;6.60;99.90
11700;DHT22;5906;51.660;6.674;2022-12-24T18:28:45;6.70;99.90
11700;DHT22;5906;51.660;6.674;2022-12-24T18:31:17;6.60;99.90
11700;DHT22;5906;51.660;6.674;2022-12-24T18:33:47;6.70;99.90
11700;DHT22;5906;51.660;6.674;2022-12-24T18:36:14;6.70;99.90